createdAt,value
2023-06-06T00:00:12.480Z,3.87
2023-06-06T00:02:46.311Z,4.00
2023-06-06T00:05:22.400Z,4.33
2023-06-06T00:07:51.242Z,3.90
2023-06-06T00:10:20.476Z,5.03
2023-06-06T00:12:49.676Z,4.73
2023-06-06T00:15:18.142Z,4.43
2023-06-06T00:17:51.317Z,4.50
2023-06-06T00:20:21.446Z,4.90
2023-06-06T00:22:54.888Z,4.80
2023-06-06T00:25:23.147Z,4.63
2023-06-06T00:27:51.679Z,4.93
2023-06-06T00:30:23.861Z,4.40
2023-06-06T00:32:52.017Z,4.90
2023-06-06T00:35:22.754Z,5.10
2023-06-06T00:37:53.206Z,4.60
2023-06-06T00:40:21.337Z,4.20
2023-06-06T00:42:51.491Z,4.87
2023-06-06T00:45:23.301Z,5.40
2023-06-06T00:47:51.651Z,5.23
2023-06-06T00:50:23.195Z,6.10
2023-06-06T00:52:56.556Z,4.50
2023-06-06T00:55:26.314Z,5.10
2023-06-06T00:57:56.562Z,5.60
2023-06-06T01:00:24.997Z,5.03
2023-06-06T01:08:30.123Z,5.07
2023-06-06T01:11:18.984Z,6.07
2023-06-06T01:13:59.175Z,6.80
2023-06-06T01:16:30.442Z,5.97
2023-06-06T01:18:59.308Z,6.20
2023-06-06T01:21:39.352Z,6.23
2023-06-06T01:24:08.589Z,6.20
2023-06-06T01:26:37.620Z,6.03
2023-06-06T01:29:06.100Z,5.30
2023-06-06T01:31:42.023Z,6.70
2023-06-06T01:34:19.337Z,5.60
2023-06-06T01:36:55.840Z,6.77
2023-06-06T01:39:26.371Z,6.17
2023-06-06T01:41:58.065Z,6.63
2023-06-06T01:44:30.602Z,6.70
2023-06-06T01:46:58.891Z,6.00
2023-06-06T01:49:28.752Z,6.77
2023-06-06T01:51:59.559Z,6.00
2023-06-06T01:54:30.124Z,7.17
2023-06-06T01:56:58.474Z,6.80
2023-06-06T01:59:28.343Z,6.83
2023-06-06T02:01:56.985Z,5.97
2023-06-06T02:04:25.076Z,6.50
2023-06-06T02:06:54.152Z,6.40
2023-06-06T02:09:28.486Z,7.20
2023-06-06T02:11:56.573Z,7.30
2023-06-06T02:28:21.974Z,6.90
2023-06-06T02:30:50.612Z,7.50
2023-06-06T02:33:22.374Z,6.10
2023-06-06T02:35:52.353Z,7.57
2023-06-06T02:38:22.551Z,7.63
2023-06-06T02:40:52.052Z,7.27
2023-06-06T02:43:21.055Z,8.20
2023-06-06T02:45:49.297Z,6.40
2023-06-06T02:48:18.413Z,6.60
2023-06-06T02:50:48.772Z,5.87
2023-06-06T02:53:17.279Z,7.30
2023-06-06T02:55:45.953Z,7.00
2023-06-06T02:58:31.214Z,6.53
2023-06-06T03:01:04.309Z,6.60
2023-06-06T03:03:33.152Z,5.97
2023-06-06T03:06:01.866Z,7.60
2023-06-06T03:08:30.471Z,7.07
2023-06-06T03:10:59.494Z,7.27
2023-06-06T03:13:31.598Z,8.33
2023-06-06T03:16:02.407Z,7.20
2023-06-06T03:18:31.464Z,7.00
2023-06-06T03:21:07.401Z,8.43
2023-06-06T03:23:42.702Z,7.40
2023-06-06T03:26:13.401Z,7.47
2023-06-06T03:28:43.987Z,7.07
2023-06-06T03:31:16.920Z,6.83
2023-06-06T03:33:50.968Z,8.27
2023-06-06T03:36:22.411Z,6.93
2023-06-06T03:38:51.478Z,6.70
2023-06-06T03:41:20.781Z,7.97
2023-06-06T03:43:53.441Z,7.77
2023-06-06T03:46:21.770Z,7.37
2023-06-06T03:48:51.308Z,8.70
2023-06-06T03:51:19.610Z,7.00
2023-06-06T03:53:49.176Z,7.33
2023-06-06T03:56:17.849Z,6.83
2023-06-06T03:58:50.945Z,7.27
2023-06-06T04:01:23.072Z,7.67
2023-06-06T04:03:51.769Z,7.17
2023-06-06T04:06:21.318Z,8.97
2023-06-06T04:08:50.277Z,7.63
2023-06-06T04:11:18.334Z,8.03
2023-06-06T04:13:49.429Z,7.67
2023-06-06T04:16:18.058Z,6.70
2023-06-06T04:18:49.059Z,7.43
2023-06-06T04:21:17.162Z,6.83
2023-06-06T04:23:48.260Z,7.00
2023-06-06T04:26:25.625Z,8.07
2023-06-06T04:29:02.161Z,6.90
2023-06-06T04:31:31.799Z,7.57
2023-06-06T04:34:04.790Z,7.07
2023-06-06T04:36:35.474Z,7.27
2023-06-06T04:39:08.223Z,8.00
2023-06-06T04:44:11.770Z,7.73
2023-06-06T04:46:43.475Z,8.40
2023-06-06T04:49:19.537Z,6.50
2023-06-06T04:52:07.223Z,8.13
2023-06-06T04:54:40.464Z,8.13
2023-06-06T04:57:09.960Z,9.10
2023-06-06T04:59:41.937Z,7.80
2023-06-06T05:02:10.411Z,8.10
2023-06-06T05:04:42.100Z,7.77
2023-06-06T05:07:12.192Z,8.53
2023-06-06T05:09:41.695Z,8.20
2023-06-06T05:12:10.362Z,8.33
2023-06-06T05:14:38.722Z,8.30
2023-06-06T05:17:08.060Z,8.90
2023-06-06T05:19:38.987Z,8.27
2023-06-06T05:22:12.566Z,8.10
2023-06-06T05:24:40.861Z,9.00
2023-06-06T05:27:09.142Z,7.60
2023-06-06T05:29:38.882Z,9.60
2023-06-06T05:32:09.485Z,9.70
2023-06-06T05:34:37.627Z,10.27
2023-06-06T05:37:08.544Z,9.73
2023-06-06T05:39:37.996Z,10.00
2023-06-06T05:42:07.123Z,10.30
2023-06-06T05:44:36.897Z,10.03
2023-06-06T05:47:08.135Z,9.30
2023-06-06T05:49:36.183Z,10.60
2023-06-06T05:52:06.493Z,9.70
2023-06-06T05:54:48.586Z,8.90
2023-06-06T05:57:25.510Z,10.47
2023-06-06T05:59:53.580Z,9.87
2023-06-06T06:02:24.494Z,9.77
2023-06-06T06:04:58.397Z,10.10
2023-06-06T06:07:29.707Z,8.33
2023-06-06T06:09:58.741Z,9.40
2023-06-06T06:12:29.737Z,10.73
2023-06-06T06:14:58.718Z,11.50
2023-06-06T06:17:26.909Z,10.40
2023-06-06T06:19:55.585Z,10.60
2023-06-06T06:22:24.657Z,9.60
2023-06-06T06:24:55.505Z,8.80
2023-06-06T06:27:25.933Z,9.90
2023-06-06T06:30:01.085Z,11.43
2023-06-06T06:32:29.452Z,11.30
2023-06-06T06:34:58.583Z,10.80
2023-06-06T06:37:26.714Z,10.50
2023-06-06T06:39:55.591Z,8.27
2023-06-06T06:42:23.888Z,10.13
2023-06-06T06:45:09.617Z,11.17
2023-06-06T06:47:40.119Z,10.30
2023-06-06T06:50:11.517Z,8.70
2023-06-06T06:52:40.341Z,10.60
2023-06-06T06:55:12.875Z,9.10
2023-06-06T06:57:44.832Z,9.43
2023-06-06T07:00:20.529Z,11.43
2023-06-06T07:02:48.758Z,10.50
2023-06-06T07:05:17.266Z,10.60
2023-06-06T07:07:46.313Z,10.60
2023-06-06T07:10:17.101Z,9.00
2023-06-06T07:12:49.320Z,8.07
2023-06-06T07:15:20.777Z,10.67
2023-06-06T07:17:51.913Z,11.13
2023-06-06T07:20:21.561Z,9.30
2023-06-06T07:22:52.149Z,9.00
2023-06-06T07:25:20.295Z,11.67
2023-06-06T07:27:48.910Z,9.50
2023-06-06T07:30:17.502Z,11.17
2023-06-06T07:32:49.048Z,11.60
2023-06-06T07:35:21.085Z,10.43
2023-06-06T07:37:49.732Z,10.10
2023-06-06T07:40:19.258Z,9.80
2023-06-06T07:42:48.719Z,9.27
2023-06-06T07:45:17.172Z,9.60
2023-06-06T07:47:47.429Z,9.83
2023-06-06T07:50:16.177Z,9.63
2023-06-06T07:52:46.256Z,9.30
2023-06-06T07:55:15.011Z,9.67
2023-06-06T07:57:47.279Z,10.30
2023-06-06T08:00:16.919Z,10.57
2023-06-06T08:02:47.060Z,12.30
2023-06-06T08:05:20.435Z,9.07
2023-06-06T08:07:49.601Z,11.40
2023-06-06T08:10:18.477Z,9.70
2023-06-06T08:12:49.623Z,8.37
2023-06-06T08:15:19.584Z,8.63
2023-06-06T08:17:49.171Z,8.80
2023-06-06T08:20:18.670Z,9.93
2023-06-06T08:22:51.343Z,8.13
2023-06-06T08:25:19.887Z,8.93
2023-06-06T08:27:50.540Z,7.80
2023-06-06T08:30:20.616Z,7.60
2023-06-06T08:32:51.392Z,8.30
2023-06-06T08:35:21.034Z,8.37
2023-06-06T08:37:49.629Z,8.13
2023-06-06T08:40:19.702Z,8.97
2023-06-06T08:42:53.637Z,9.23
2023-06-06T08:45:23.108Z,8.80
2023-06-06T08:47:56.393Z,7.57
2023-06-06T08:50:26.006Z,9.00
2023-06-06T08:52:54.121Z,9.07
2023-06-06T08:55:23.601Z,8.07
2023-06-06T08:57:53.902Z,9.60
2023-06-06T09:00:25.608Z,7.80
2023-06-06T09:02:58.172Z,8.90
2023-06-06T09:05:26.771Z,9.80
2023-06-06T09:07:55.479Z,7.40
2023-06-06T09:10:25.670Z,8.13
2023-06-06T09:12:55.629Z,6.93
2023-06-06T09:15:26.699Z,7.13
2023-06-06T09:17:56.582Z,8.07
2023-06-06T09:20:26.374Z,8.47
2023-06-06T09:22:55.209Z,9.97
2023-06-06T09:25:24.791Z,8.37
2023-06-06T09:28:01.076Z,7.80
2023-06-06T09:30:31.749Z,7.73
2023-06-06T09:33:04.596Z,8.60
2023-06-06T09:35:34.471Z,9.23
2023-06-06T09:38:08.403Z,6.90
2023-06-06T09:40:46.008Z,8.93
2023-06-06T09:43:15.275Z,6.67
2023-06-06T09:45:52.898Z,7.80
2023-06-06T09:48:28.259Z,7.30
2023-06-06T09:50:58.753Z,6.37
2023-06-06T09:53:30.074Z,6.93
2023-06-06T09:56:06.149Z,8.77
2023-06-06T09:58:39.096Z,10.80
2023-06-06T10:01:08.150Z,9.30
2023-06-06T10:03:39.979Z,7.90
2023-06-06T10:06:10.739Z,7.70
2023-06-06T10:08:41.460Z,7.50
2023-06-06T10:11:10.257Z,7.50
2023-06-06T10:13:41.377Z,7.27
2023-06-06T10:16:17.807Z,6.83
2023-06-06T10:18:49.338Z,6.17
2023-06-06T10:21:18.644Z,6.97
2023-06-06T10:23:47.681Z,6.20
2023-06-06T10:26:30.218Z,5.83
2023-06-06T10:29:04.986Z,6.80
2023-06-06T10:31:42.500Z,5.70
2023-06-06T10:34:22.812Z,4.97
2023-06-06T10:36:50.930Z,5.97
2023-06-06T10:39:22.161Z,6.03
2023-06-06T10:41:53.931Z,5.30
2023-06-06T10:44:28.600Z,5.70
2023-06-06T10:47:30.172Z,7.10
2023-06-06T10:50:23.755Z,5.97
2023-06-06T10:52:55.666Z,5.57
2023-06-06T10:55:46.476Z,5.57
2023-06-06T10:58:22.187Z,4.43
2023-06-06T11:00:53.120Z,5.87
2023-06-06T11:03:32.913Z,6.13
2023-06-06T11:06:17.940Z,4.80
2023-06-06T11:08:50.665Z,5.37
2023-06-06T11:11:37.737Z,5.77
2023-06-06T11:14:10.253Z,5.50
2023-06-06T11:17:04.157Z,5.57
2023-06-06T11:19:40.531Z,6.50
2023-06-06T11:22:22.815Z,5.60
2023-06-06T11:24:53.736Z,5.83
2023-06-06T11:27:21.907Z,4.93
2023-06-06T11:29:50.282Z,5.47
2023-06-06T11:32:19.800Z,5.17
2023-06-06T11:34:47.918Z,4.67
2023-06-06T11:37:18.570Z,4.60
2023-06-06T11:39:47.731Z,4.90
2023-06-06T11:42:20.277Z,4.47
2023-06-06T11:44:49.755Z,4.57
2023-06-06T11:47:18.347Z,4.90
2023-06-06T11:49:48.887Z,4.57
2023-06-06T11:52:20.122Z,4.73
2023-06-06T11:54:58.916Z,4.63
2023-06-06T11:57:28.419Z,5.07
2023-06-06T11:59:58.569Z,5.40
2023-06-06T12:02:27.381Z,4.67
2023-06-06T12:04:58.826Z,4.50
2023-06-06T12:07:30.235Z,5.50
2023-06-06T12:10:00.977Z,4.80
2023-06-06T12:12:30.055Z,4.60
2023-06-06T12:14:59.497Z,4.67
2023-06-06T12:17:30.030Z,4.90
2023-06-06T12:20:01.843Z,4.20
2023-06-06T12:22:34.470Z,4.47
2023-06-06T12:25:05.917Z,4.90
2023-06-06T12:27:37.941Z,4.20
2023-06-06T12:30:16.773Z,4.33
2023-06-06T12:32:55.534Z,4.50
2023-06-06T12:35:24.500Z,3.70
2023-06-06T12:37:53.877Z,3.83
2023-06-06T12:40:26.733Z,5.30
2023-06-06T12:42:58.097Z,3.70
2023-06-06T12:45:28.852Z,3.67
2023-06-06T12:47:59.982Z,3.50
2023-06-06T12:50:31.586Z,3.30
2023-06-06T12:53:04.419Z,3.70
2023-06-06T12:55:33.814Z,3.83
2023-06-06T12:58:03.351Z,2.90
2023-06-06T13:00:31.989Z,3.53
2023-06-06T13:03:00.934Z,2.70
2023-06-06T13:05:30.180Z,3.40
2023-06-06T13:07:59.537Z,3.13
2023-06-06T13:10:29.375Z,3.70
2023-06-06T13:12:58.472Z,3.40
2023-06-06T13:15:32.414Z,3.37
2023-06-06T13:18:00.870Z,3.40
2023-06-06T13:20:29.856Z,3.30
2023-06-06T13:22:57.909Z,3.80
2023-06-06T13:25:26.867Z,3.20
2023-06-06T13:27:56.308Z,3.43
2023-06-06T13:30:25.061Z,2.97
2023-06-06T13:32:54.090Z,3.73
2023-06-06T13:35:22.285Z,3.33
2023-06-06T13:37:50.972Z,3.40
2023-06-06T13:40:20.060Z,3.27
2023-06-06T13:42:48.530Z,2.57
2023-06-06T13:45:17.969Z,3.20
2023-06-06T13:47:46.974Z,3.00
2023-06-06T13:50:18.222Z,2.70
2023-06-06T13:52:49.864Z,3.20
2023-06-06T13:55:17.972Z,2.50
2023-06-06T13:57:56.112Z,3.40
2023-06-06T14:00:25.719Z,3.20
2023-06-06T14:02:56.170Z,3.17
2023-06-06T14:05:25.686Z,3.33
2023-06-06T14:07:56.212Z,3.03
2023-06-06T14:10:24.277Z,3.70
2023-06-06T14:12:54.905Z,3.17
2023-06-06T14:15:23.189Z,3.83
2023-06-06T14:20:27.853Z,3.40
2023-06-06T14:22:55.904Z,3.50
2023-06-06T14:25:24.027Z,3.50
2023-06-06T14:27:52.886Z,3.40
2023-06-06T14:30:21.733Z,3.57
2023-06-06T14:32:49.851Z,3.20
2023-06-06T14:35:20.143Z,3.27
2023-06-06T14:38:14.133Z,2.73
2023-06-06T14:40:44.906Z,3.10
2023-06-06T14:43:12.956Z,3.40
2023-06-06T14:45:41.905Z,3.87
2023-06-06T14:48:10.948Z,3.10
2023-06-06T14:50:40.856Z,3.30
2023-06-06T14:53:08.929Z,2.80
2023-06-06T14:55:41.084Z,2.93
2023-06-06T14:58:10.912Z,2.90
2023-06-06T15:00:39.372Z,3.70
2023-06-06T15:03:07.512Z,2.50
2023-06-06T15:05:35.725Z,2.73
2023-06-06T15:08:06.978Z,3.60
2023-06-06T15:10:38.930Z,3.47
2023-06-06T15:13:09.280Z,3.20
2023-06-06T15:15:40.888Z,3.00
2023-06-06T15:18:10.344Z,2.77
2023-06-06T15:20:38.542Z,3.50
2023-06-06T15:23:09.042Z,2.90
2023-06-06T15:25:37.914Z,2.67
2023-06-06T15:28:06.389Z,3.10
2023-06-06T15:30:36.025Z,2.80
2023-06-06T15:33:04.821Z,3.30
2023-06-06T15:35:33.541Z,3.20
2023-06-06T15:38:01.764Z,3.40
2023-06-06T15:40:35.952Z,3.43
2023-06-06T15:43:04.406Z,3.20
2023-06-06T15:45:33.662Z,3.60
2023-06-06T15:48:05.094Z,2.97
2023-06-06T15:50:36.957Z,2.50
2023-06-06T15:53:06.278Z,2.90
2023-06-06T15:55:36.731Z,2.67
2023-06-06T15:58:07.904Z,2.67
2023-06-06T16:00:36.982Z,3.00
2023-06-06T16:03:05.991Z,2.83
2023-06-06T16:05:35.862Z,3.00
2023-06-06T16:08:04.443Z,2.73
2023-06-06T16:10:33.515Z,2.70
2023-06-06T16:13:03.314Z,3.20
2023-06-06T16:15:33.992Z,2.70
2023-06-06T16:18:02.114Z,2.57
2023-06-06T16:20:30.825Z,3.07
2023-06-06T16:22:58.942Z,2.97
2023-06-06T16:25:27.937Z,3.20
2023-06-06T16:27:56.089Z,2.80
2023-06-06T16:30:25.453Z,2.80
2023-06-06T16:32:54.366Z,2.53
2023-06-06T16:35:22.610Z,2.60
2023-06-06T16:37:51.557Z,2.40
2023-06-06T16:40:20.206Z,2.60
2023-06-06T16:42:48.325Z,2.87
2023-06-06T16:45:16.689Z,2.30
2023-06-06T16:47:47.173Z,2.77
2023-06-06T16:50:15.900Z,3.00
2023-06-06T16:52:44.010Z,2.80
2023-06-06T16:55:12.590Z,3.07
2023-06-06T16:57:41.088Z,3.67
2023-06-06T17:00:21.409Z,2.80
2023-06-06T17:02:52.407Z,2.93
2023-06-06T17:05:21.542Z,2.73
2023-06-06T17:07:49.677Z,3.40
2023-06-06T17:10:17.820Z,2.60
2023-06-06T17:12:46.436Z,3.03
2023-06-06T17:15:14.862Z,3.67
2023-06-06T17:17:43.670Z,2.60
2023-06-06T17:20:13.982Z,3.57
2023-06-06T17:22:45.034Z,3.87
2023-06-06T17:25:13.196Z,3.20
2023-06-06T17:27:43.328Z,3.47
2023-06-06T17:30:12.279Z,3.63
2023-06-06T17:32:41.132Z,3.73
2023-06-06T17:35:10.607Z,3.30
2023-06-06T17:37:42.221Z,3.90
2023-06-06T17:40:12.679Z,4.37
2023-06-06T17:42:43.366Z,4.07
2023-06-06T17:45:13.233Z,3.60
2023-06-06T17:47:43.677Z,3.43
2023-06-06T17:50:13.107Z,3.50
2023-06-06T17:52:43.105Z,3.57
2023-06-06T17:55:12.321Z,3.33
2023-06-06T17:57:40.802Z,3.90
2023-06-06T18:00:16.675Z,3.17
2023-06-06T18:02:46.982Z,4.40
2023-06-06T18:05:27.930Z,4.10
2023-06-06T18:08:04.174Z,4.23
2023-06-06T18:10:34.188Z,3.67
2023-06-06T18:13:03.747Z,4.13
2023-06-06T18:15:32.206Z,4.47
2023-06-06T18:18:00.778Z,4.13
2023-06-06T18:20:34.741Z,3.80
2023-06-06T18:23:07.772Z,4.60
2023-06-06T18:25:37.079Z,4.40
2023-06-06T18:28:07.088Z,4.20
2023-06-06T18:30:35.485Z,3.70
2023-06-06T18:33:05.946Z,4.33
2023-06-06T18:35:34.071Z,3.30
2023-06-06T18:38:02.138Z,4.50
2023-06-06T18:40:33.825Z,3.73
2023-06-06T18:43:02.358Z,4.07
2023-06-06T18:45:32.066Z,4.60
2023-06-06T18:48:03.958Z,4.50
2023-06-06T18:50:33.196Z,4.70
2023-06-06T18:53:01.786Z,3.90
2023-06-06T18:55:31.930Z,4.30
2023-06-06T18:58:02.250Z,4.97
2023-06-06T19:00:30.544Z,4.33
2023-06-06T19:02:58.819Z,4.40
2023-06-06T19:05:28.730Z,4.20
2023-06-06T19:07:58.036Z,5.23
2023-06-06T19:10:26.956Z,4.07
2023-06-06T19:12:55.827Z,4.33
2023-06-06T19:15:25.369Z,4.17
2023-06-06T19:17:55.413Z,4.33
2023-06-06T19:20:23.657Z,4.13
2023-06-06T19:22:54.980Z,4.00
2023-06-06T19:25:24.039Z,4.00
2023-06-06T19:27:52.721Z,5.00
2023-06-06T19:30:22.144Z,5.40
2023-06-06T19:32:53.146Z,4.23
2023-06-06T19:35:22.337Z,4.17
2023-06-06T19:37:50.873Z,3.70
2023-06-06T19:40:22.151Z,3.80
2023-06-06T19:42:51.556Z,4.90
2023-06-06T19:45:20.818Z,5.20
2023-06-06T19:47:50.516Z,4.50
2023-06-06T19:50:20.951Z,4.30
2023-06-06T19:52:49.870Z,4.50
2023-06-06T19:55:18.202Z,4.73
2023-06-06T19:57:47.513Z,4.13
2023-06-06T20:00:17.173Z,4.43
2023-06-06T20:02:45.762Z,4.10
2023-06-06T20:05:14.503Z,4.20
2023-06-06T20:07:44.901Z,4.70
2023-06-06T20:10:14.040Z,4.70
2023-06-06T20:12:42.783Z,3.90
2023-06-06T20:15:12.171Z,4.47
2023-06-06T20:17:40.850Z,4.03
2023-06-06T20:20:11.457Z,4.10
2023-06-06T20:22:40.273Z,5.03
2023-06-06T20:25:12.520Z,3.47
2023-06-06T20:27:40.781Z,4.00
2023-06-06T20:30:10.086Z,4.67
2023-06-06T20:32:41.468Z,4.27
2023-06-06T20:35:12.198Z,4.60
2023-06-06T20:37:41.492Z,4.90
2023-06-06T20:40:21.829Z,4.33
2023-06-06T20:42:50.344Z,4.70
2023-06-06T20:45:19.060Z,4.70
2023-06-06T20:47:49.298Z,4.77
2023-06-06T20:50:18.184Z,4.57
2023-06-06T20:52:47.003Z,4.40
2023-06-06T20:55:17.051Z,4.50
2023-06-06T20:57:46.113Z,4.10
2023-06-06T21:00:15.521Z,4.50
2023-06-06T21:02:47.266Z,4.10
2023-06-06T21:05:16.912Z,4.60
2023-06-06T21:07:45.534Z,4.37
2023-06-06T21:10:14.068Z,4.07
2023-06-06T21:12:44.834Z,5.60
2023-06-06T21:15:14.659Z,7.77
2023-06-06T21:17:42.853Z,5.30
2023-06-06T21:20:12.022Z,4.73
2023-06-06T21:22:42.031Z,4.90
2023-06-06T21:25:11.990Z,4.60
2023-06-06T21:27:40.121Z,5.10
2023-06-06T21:30:11.439Z,4.47
2023-06-06T21:32:39.889Z,5.33
2023-06-06T21:35:08.359Z,4.30
2023-06-06T21:37:37.337Z,4.73
2023-06-06T21:40:07.094Z,4.63
2023-06-06T21:42:35.296Z,5.57
2023-06-06T21:45:03.442Z,5.20
2023-06-06T21:47:34.576Z,4.53
2023-06-06T21:50:11.078Z,5.57
2023-06-06T21:52:40.518Z,5.20
2023-06-06T21:55:09.326Z,5.40
2023-06-06T21:57:37.862Z,4.70
2023-06-06T22:00:15.237Z,5.30
2023-06-06T22:02:47.237Z,4.97
2023-06-06T22:05:15.635Z,4.27
2023-06-06T22:07:44.145Z,4.20
2023-06-06T22:10:16.965Z,5.40
2023-06-06T22:12:45.551Z,5.23
2023-06-06T22:15:14.117Z,4.67
2023-06-06T22:17:44.320Z,4.37
2023-06-06T22:20:16.240Z,4.70
2023-06-06T22:22:44.946Z,5.80
2023-06-06T22:25:13.121Z,5.20
2023-06-06T22:27:44.098Z,5.57
2023-06-06T22:30:12.746Z,4.60
2023-06-06T22:32:40.976Z,5.77
2023-06-06T22:35:10.862Z,4.83
2023-06-06T22:37:40.727Z,4.43
2023-06-06T22:40:09.856Z,5.10
2023-06-06T22:42:38.329Z,5.27
2023-06-06T22:45:09.143Z,4.60
2023-06-06T22:47:37.671Z,5.07
2023-06-06T22:50:08.799Z,5.40
2023-06-06T22:52:37.755Z,4.60
2023-06-06T22:55:11.708Z,4.87
2023-06-06T22:57:42.062Z,4.63
2023-06-06T23:00:11.100Z,4.87
2023-06-06T23:02:40.107Z,5.37
2023-06-06T23:05:11.387Z,5.70
2023-06-06T23:07:40.545Z,4.80
2023-06-06T23:10:11.086Z,6.27
2023-06-06T23:12:42.810Z,5.67
2023-06-06T23:15:12.757Z,5.23
2023-06-06T23:17:41.748Z,5.10
2023-06-06T23:20:14.310Z,5.57
2023-06-06T23:22:44.298Z,5.30
2023-06-06T23:25:16.770Z,5.67
2023-06-06T23:27:45.721Z,5.60
2023-06-06T23:30:15.458Z,6.13
2023-06-06T23:32:44.227Z,5.73
2023-06-06T23:35:13.040Z,5.73
2023-06-06T23:37:41.136Z,5.33
2023-06-06T23:40:27.798Z,5.93
2023-06-06T23:42:57.781Z,5.47
2023-06-06T23:45:26.152Z,6.50
2023-06-06T23:47:54.241Z,5.77
2023-06-06T23:50:23.122Z,6.90
2023-06-06T23:52:55.582Z,6.50
2023-06-06T23:55:26.842Z,6.20
2023-06-06T23:57:55.365Z,5.03
